WADD/DPS METAR and TAF weather

Enter ICAO airport designator
Station Type Date Time Source
WADD METAR 2019/02/20 17:00 UTC NOAA

WADD 201700Z 30004KT 9999 SCT017 28/25 Q1012 NOSIG


Station Type Date Time Source
WADD Decoded METAR 2019/02/20 17:00 UTC NOAA

Station name not available
Feb 20, 2019 - 12:00 PM EST / 2019.02.20 1700 UTC
Wind: from the WNW (300 degrees) at 5 MPH (4 KT):0
Visibility: greater than 7 mile(s):0
Sky conditions: partly cloudy
Temperature: 82 F (28 C)
Dew Point: 77 F (25 C)
Relative Humidity: 83%
Pressure (altimeter): 29.88 in. Hg (1012 hPa)
ob: WADD 201700Z 30004KT 9999 SCT017 28/25 Q1012 NOSIG
cycle: 17

Station Type Date Time Source
WADD TAF 2019/02/20 18:09 UTC NOAA

TAF TAF WADD 201700Z 2018/2118 VRB05KT 9999 SCT017
TEMPO 2018/2021 FEW016CB SCT016
TEMPO 2109/2113 5000 TSRA FEW015CB BKN015


Example: see airport list